createdAt,value
2022-12-23T00:00:30.919Z,21.03
2022-12-23T00:03:35.777Z,21.00
2022-12-23T00:06:38.771Z,21.02
2022-12-23T00:09:41.728Z,21.01
2022-12-23T00:13:02.147Z,21.00
2022-12-23T00:16:08.081Z,21.00
2022-12-23T00:19:12.544Z,21.01
2022-12-23T00:22:15.547Z,21.01
2022-12-23T00:25:19.130Z,21.01
2022-12-23T00:28:24.583Z,21.01
2022-12-23T00:31:27.739Z,21.01
2022-12-23T00:34:32.167Z,21.00
2022-12-23T00:37:35.175Z,20.92
2022-12-23T00:40:55.913Z,20.97
2022-12-23T00:43:58.990Z,21.00
2022-12-23T00:47:02.005Z,20.97
2022-12-23T00:50:06.415Z,20.99
2022-12-23T00:53:09.421Z,20.96
2022-12-23T00:56:12.370Z,20.97
2022-12-23T00:59:15.434Z,20.97
2022-12-23T01:02:35.930Z,20.97
2022-12-23T01:05:40.394Z,20.68
2022-12-23T01:08:43.388Z,20.98
2022-12-23T01:11:46.478Z,21.01
2022-12-23T01:14:49.853Z,20.99
2022-12-23T01:17:52.952Z,20.99
2022-12-23T01:20:57.397Z,20.93
2022-12-23T01:24:00.610Z,20.86
2022-12-23T01:27:03.647Z,20.96
2022-12-23T01:30:07.976Z,20.96
2022-12-23T01:33:10.973Z,20.96
2022-12-23T01:39:18.640Z,20.96
2022-12-23T01:45:42.228Z,20.94
2022-12-23T01:48:48.560Z,20.93
2022-12-23T01:51:53.486Z,20.96
2022-12-23T01:54:57.429Z,20.93
2022-12-23T01:58:09.875Z,20.93
2022-12-23T02:01:30.972Z,20.96
2022-12-23T02:04:34.063Z,20.96
2022-12-23T02:08:10.407Z,20.92
2022-12-23T02:11:32.938Z,20.93
2022-12-23T02:15:08.046Z,20.93
2022-12-23T02:18:27.605Z,20.93
2022-12-23T02:22:03.063Z,20.93
2022-12-23T02:25:30.329Z,20.92
2022-12-23T02:29:06.913Z,20.92
2022-12-23T02:32:18.820Z,20.93
2022-12-23T02:35:30.504Z,20.93
2022-12-23T02:38:40.320Z,20.96
2022-12-23T02:45:00.216Z,20.90
2022-12-23T02:48:10.100Z,20.93
2022-12-23T02:51:15.855Z,20.93
2022-12-23T02:54:26.131Z,20.93
2022-12-23T02:57:35.423Z,20.96
2022-12-23T03:00:41.419Z,20.90
2022-12-23T03:03:48.863Z,20.92
2022-12-23T03:06:55.544Z,20.92
2022-12-23T03:13:10.353Z,20.92
2022-12-23T03:16:21.901Z,20.91
2022-12-23T03:19:33.116Z,20.92
2022-12-23T03:22:40.246Z,20.93
2022-12-23T03:25:51.343Z,20.93
2022-12-23T03:28:59.897Z,20.93
2022-12-23T03:35:13.589Z,20.93
2022-12-23T03:38:19.610Z,20.94
2022-12-23T03:41:28.991Z,20.96
2022-12-23T03:44:36.888Z,20.96
2022-12-23T03:47:45.711Z,20.91
2022-12-23T03:50:54.989Z,20.98
2022-12-23T03:54:02.665Z,20.97
2022-12-23T03:57:08.732Z,20.97
2022-12-23T04:00:14.020Z,20.98
2022-12-23T04:03:23.416Z,20.96
2022-12-23T04:06:31.627Z,21.03
2022-12-23T04:09:36.174Z,21.08
2022-12-23T04:12:40.440Z,21.12
2022-12-23T04:15:43.958Z,21.13
2022-12-23T04:18:46.999Z,21.14
2022-12-23T04:21:51.400Z,21.13
2022-12-23T04:24:54.446Z,21.15
2022-12-23T04:27:57.502Z,21.13
2022-12-23T04:31:00.553Z,21.15
2022-12-23T04:34:03.605Z,21.16
2022-12-23T04:37:08.137Z,21.15
2022-12-23T04:40:11.512Z,21.15
2022-12-23T04:43:14.717Z,21.06
2022-12-23T04:46:17.813Z,21.13
2022-12-23T04:49:20.908Z,21.11
2022-12-23T04:52:25.523Z,21.09
2022-12-23T04:55:28.537Z,21.03
2022-12-23T04:58:31.631Z,21.01
2022-12-23T05:01:34.659Z,20.97
2022-12-23T05:04:38.064Z,21.06
2022-12-23T05:07:42.445Z,21.11
2022-12-23T05:10:46.143Z,21.15
2022-12-23T05:13:49.197Z,21.28
2022-12-23T05:16:52.257Z,21.35
2022-12-23T05:19:56.603Z,21.36
2022-12-23T05:23:00.928Z,21.31
2022-12-23T05:26:03.951Z,21.29
2022-12-23T05:29:06.978Z,21.24
2022-12-23T05:32:10.108Z,21.24
2022-12-23T05:35:13.248Z,21.20
2022-12-23T05:38:17.686Z,21.19
2022-12-23T05:41:20.788Z,21.19
2022-12-23T05:44:23.822Z,21.18
2022-12-23T05:47:26.848Z,21.16
2022-12-23T05:50:29.999Z,21.16
2022-12-23T05:53:34.511Z,21.15
2022-12-23T05:56:37.443Z,21.15
2022-12-23T05:59:40.370Z,21.15
2022-12-23T06:02:46.123Z,21.15
2022-12-23T06:05:53.334Z,21.14
2022-12-23T06:09:00.060Z,21.11
2022-12-23T06:12:03.348Z,21.14
2022-12-23T06:15:07.364Z,21.14
2022-12-23T06:18:10.622Z,21.13
2022-12-23T06:21:13.663Z,21.13
2022-12-23T06:24:18.054Z,21.13
2022-12-23T06:27:21.150Z,21.13
2022-12-23T06:30:24.202Z,21.14
2022-12-23T06:33:27.256Z,21.14
2022-12-23T06:36:30.355Z,21.13
2022-12-23T06:39:35.057Z,21.13
2022-12-23T06:42:38.139Z,21.13
2022-12-23T06:45:41.676Z,21.12
2022-12-23T06:48:44.673Z,21.13
2022-12-23T06:51:47.735Z,21.13
2022-12-23T06:54:52.131Z,21.13
2022-12-23T06:57:55.178Z,21.14
2022-12-23T07:00:58.214Z,21.15
2022-12-23T07:04:01.996Z,21.16
2022-12-23T07:07:05.079Z,21.16
2022-12-23T07:10:10.935Z,21.15
2022-12-23T07:13:14.098Z,21.16
2022-12-23T07:16:17.477Z,21.16
2022-12-23T07:19:20.556Z,21.15
2022-12-23T07:22:23.537Z,21.15
2022-12-23T07:25:28.081Z,21.16
2022-12-23T07:28:31.136Z,21.18
2022-12-23T07:31:35.476Z,21.27
2022-12-23T07:34:41.099Z,21.32
2022-12-23T07:37:44.279Z,21.31
2022-12-23T07:40:51.325Z,21.26
2022-12-23T07:43:54.832Z,21.24
2022-12-23T07:46:57.839Z,21.25
2022-12-23T07:50:00.985Z,21.27
2022-12-23T07:53:04.016Z,21.27
2022-12-23T07:56:09.375Z,21.26
2022-12-23T07:59:12.396Z,21.28
2022-12-23T08:02:15.650Z,21.30
2022-12-23T08:05:18.990Z,21.26
2022-12-23T08:08:22.107Z,21.31
2022-12-23T08:11:26.517Z,21.35
2022-12-23T08:14:29.510Z,21.43
2022-12-23T08:17:33.047Z,21.49
2022-12-23T08:20:36.033Z,21.56
2022-12-23T08:23:39.563Z,21.61
2022-12-23T08:26:43.979Z,21.65
2022-12-23T08:29:47.607Z,21.59
2022-12-23T08:32:50.611Z,21.70
2022-12-23T08:35:55.780Z,21.74
2022-12-23T08:39:00.608Z,21.77
2022-12-23T08:42:05.216Z,21.78
2022-12-23T08:45:09.203Z,21.82
2022-12-23T08:48:12.232Z,21.94
2022-12-23T08:51:17.155Z,21.86
2022-12-23T08:54:20.594Z,21.88
2022-12-23T08:57:24.969Z,21.90
2022-12-23T09:00:28.053Z,21.87
2022-12-23T09:03:31.310Z,21.85
2022-12-23T09:06:37.278Z,21.88
2022-12-23T09:09:40.318Z,21.87
2022-12-23T09:12:44.692Z,21.89
2022-12-23T09:15:48.013Z,21.89
2022-12-23T09:18:51.076Z,21.90
2022-12-23T09:21:54.251Z,21.90
2022-12-23T09:25:03.144Z,21.90
2022-12-23T09:28:10.832Z,21.90
2022-12-23T09:31:14.387Z,21.91
2022-12-23T09:34:17.425Z,21.94
2022-12-23T09:37:20.403Z,21.99
2022-12-23T09:40:23.883Z,22.05
2022-12-23T09:43:40.133Z,22.08
2022-12-23T09:46:48.947Z,22.16
2022-12-23T09:49:54.777Z,22.17
2022-12-23T09:53:03.056Z,22.15
2022-12-23T09:56:15.954Z,22.18
2022-12-23T09:59:32.269Z,22.18
2022-12-23T10:02:48.028Z,22.16
2022-12-23T10:06:02.523Z,22.16
2022-12-23T10:09:08.615Z,22.16
2022-12-23T10:12:27.318Z,22.05
2022-12-23T10:15:38.354Z,22.18
2022-12-23T10:18:51.417Z,22.14
2022-12-23T10:22:01.318Z,22.11
2022-12-23T10:25:06.799Z,22.01
2022-12-23T10:28:11.119Z,22.09
2022-12-23T10:34:50.601Z,22.05
2022-12-23T10:37:59.077Z,22.01
2022-12-23T10:41:11.250Z,21.90
2022-12-23T10:44:37.714Z,21.94
2022-12-23T10:47:51.090Z,21.91
2022-12-23T10:51:00.526Z,21.89
2022-12-23T10:54:07.949Z,21.68
2022-12-23T10:57:11.673Z,21.86
2022-12-23T11:00:37.819Z,21.87
2022-12-23T11:03:47.657Z,21.88
2022-12-23T11:07:18.070Z,21.87
2022-12-23T11:10:20.484Z,21.87
2022-12-23T11:13:37.094Z,21.75
2022-12-23T11:16:47.175Z,21.82
2022-12-23T11:20:09.770Z,21.81
2022-12-23T11:23:26.880Z,21.79
2022-12-23T11:26:30.077Z,21.75
2022-12-23T11:29:36.604Z,21.71
2022-12-23T11:32:39.988Z,21.75
2022-12-23T11:35:45.620Z,21.60
2022-12-23T11:38:51.155Z,21.72
2022-12-23T11:42:02.842Z,21.70
2022-12-23T11:45:09.246Z,21.68
2022-12-23T11:48:29.929Z,21.66
2022-12-23T11:51:34.697Z,21.66
2022-12-23T11:54:38.984Z,21.65
2022-12-23T11:57:45.712Z,21.65
2022-12-23T12:00:56.038Z,21.64
2022-12-23T12:04:03.856Z,21.60
2022-12-23T12:07:13.326Z,21.59
2022-12-23T12:10:20.017Z,21.63
2022-12-23T12:13:27.672Z,21.63
2022-12-23T12:16:48.268Z,21.61
2022-12-23T12:20:04.938Z,21.62
2022-12-23T12:23:16.067Z,21.61
2022-12-23T12:26:26.724Z,21.55
2022-12-23T12:29:34.680Z,21.61
2022-12-23T12:32:48.095Z,21.60
2022-12-23T12:36:04.964Z,21.60
2022-12-23T12:39:19.344Z,21.59
2022-12-23T12:42:30.274Z,21.59
2022-12-23T12:45:40.120Z,21.59
2022-12-23T12:48:49.949Z,21.59
2022-12-23T12:51:59.542Z,21.58
2022-12-23T12:55:13.887Z,21.59
2022-12-23T12:58:21.624Z,21.56
2022-12-23T13:01:44.216Z,21.56
2022-12-23T13:05:06.595Z,21.57
2022-12-23T13:08:28.944Z,21.57
2022-12-23T13:11:45.277Z,21.57
2022-12-23T13:15:02.196Z,21.62
2022-12-23T13:18:26.668Z,21.65
2022-12-23T13:21:34.097Z,21.66
2022-12-23T13:24:47.451Z,21.78
2022-12-23T13:27:58.471Z,21.78
2022-12-23T13:31:08.169Z,21.80
2022-12-23T13:34:27.373Z,21.77
2022-12-23T13:37:37.678Z,21.79
2022-12-23T13:40:49.259Z,21.75
2022-12-23T13:43:57.629Z,21.71
2022-12-23T13:47:13.827Z,21.59
2022-12-23T13:50:24.659Z,21.63
2022-12-23T13:53:41.238Z,21.65
2022-12-23T13:56:50.432Z,21.62
2022-12-23T14:00:06.043Z,21.56
2022-12-23T14:03:34.192Z,21.61
2022-12-23T14:06:45.146Z,21.58
2022-12-23T14:09:53.273Z,21.59
2022-12-23T14:13:03.083Z,21.58
2022-12-23T14:16:36.330Z,21.55
2022-12-23T14:19:56.960Z,21.55
2022-12-23T14:23:10.979Z,21.55
2022-12-23T14:26:27.951Z,21.47
2022-12-23T14:29:43.164Z,21.54
2022-12-23T14:32:51.485Z,21.59
2022-12-23T14:35:58.233Z,21.62
2022-12-23T14:39:32.884Z,21.66
2022-12-23T14:42:37.861Z,21.64
2022-12-23T14:45:43.925Z,21.68
2022-12-23T14:49:38.893Z,21.68
2022-12-23T14:53:00.338Z,21.69
2022-12-23T14:56:21.780Z,21.70
2022-12-23T14:59:31.761Z,21.67
2022-12-23T15:02:38.332Z,21.65
2022-12-23T15:05:41.979Z,21.61
2022-12-23T15:08:48.845Z,21.63
2022-12-23T15:11:52.808Z,21.67
2022-12-23T15:14:59.199Z,21.69
2022-12-23T15:18:03.781Z,21.69
2022-12-23T15:21:13.391Z,21.73
2022-12-23T15:24:21.195Z,21.72
2022-12-23T15:27:27.953Z,21.74
2022-12-23T15:30:36.327Z,21.71
2022-12-23T15:37:03.240Z,21.73
2022-12-23T15:40:23.555Z,21.69
2022-12-23T15:43:26.652Z,21.76
2022-12-23T15:46:32.586Z,21.76
2022-12-23T15:49:35.761Z,21.76
2022-12-23T15:52:42.255Z,21.77
2022-12-23T15:55:48.425Z,21.76
2022-12-23T15:58:52.135Z,21.78
2022-12-23T16:01:55.546Z,21.76
2022-12-23T16:05:01.789Z,21.75
2022-12-23T16:08:12.840Z,21.78
2022-12-23T16:11:19.507Z,21.76
2022-12-23T16:14:34.300Z,21.78
2022-12-23T16:17:38.045Z,21.73
2022-12-23T16:20:43.265Z,21.67
2022-12-23T16:23:51.462Z,21.70
2022-12-23T16:26:56.973Z,21.69
2022-12-23T16:30:03.133Z,21.56
2022-12-23T16:33:08.620Z,21.67
2022-12-23T16:36:19.525Z,21.65
2022-12-23T16:39:23.990Z,21.64
2022-12-23T16:42:28.399Z,21.59
2022-12-23T16:45:33.963Z,21.64
2022-12-23T16:48:40.192Z,21.61
2022-12-23T16:51:43.867Z,21.62
2022-12-23T16:54:46.887Z,21.61
2022-12-23T16:57:51.579Z,21.59
2022-12-23T17:00:55.857Z,21.59
2022-12-23T17:03:59.082Z,21.59
2022-12-23T17:07:02.125Z,21.58
2022-12-23T17:10:05.758Z,21.58
2022-12-23T17:13:19.573Z,21.58
2022-12-23T17:16:24.522Z,21.57
2022-12-23T17:19:29.251Z,21.55
2022-12-23T17:22:35.443Z,21.56
2022-12-23T17:25:38.475Z,21.45
2022-12-23T17:28:42.946Z,21.56
2022-12-23T17:31:46.988Z,21.54
2022-12-23T17:34:50.041Z,21.56
2022-12-23T17:37:54.114Z,21.41
2022-12-23T17:40:59.185Z,21.54
2022-12-23T17:44:03.592Z,21.40
2022-12-23T17:47:11.759Z,21.52
2022-12-23T17:50:14.816Z,21.49
2022-12-23T17:53:19.086Z,21.49
2022-12-23T17:56:23.173Z,21.49
2022-12-23T17:59:27.514Z,21.49
2022-12-23T18:02:35.241Z,21.49
2022-12-23T18:05:38.366Z,21.57
2022-12-23T18:08:41.519Z,21.63
2022-12-23T18:11:47.248Z,21.65
2022-12-23T18:14:51.815Z,21.68
2022-12-23T18:17:54.849Z,21.69
2022-12-23T18:20:58.401Z,21.65
2022-12-23T18:24:01.542Z,21.62
2022-12-23T18:27:10.313Z,21.59
2022-12-23T18:30:15.250Z,21.56
2022-12-23T18:33:19.374Z,21.56
2022-12-23T18:36:24.585Z,21.55
2022-12-23T18:39:27.634Z,21.41
2022-12-23T18:42:30.664Z,21.45
2022-12-23T18:45:37.727Z,21.52
2022-12-23T18:48:40.837Z,21.56
2022-12-23T18:51:43.827Z,21.61
2022-12-23T18:54:46.881Z,21.70
2022-12-23T18:57:50.720Z,21.70
2022-12-23T19:00:55.128Z,21.75
2022-12-23T19:03:58.118Z,21.79
2022-12-23T19:07:01.126Z,21.74
2022-12-23T19:10:06.708Z,21.78
2022-12-23T19:13:10.383Z,21.80
2022-12-23T19:16:16.497Z,21.76
2022-12-23T19:19:19.539Z,21.82
2022-12-23T19:22:22.614Z,21.82
2022-12-23T19:25:25.659Z,21.84
2022-12-23T19:28:28.701Z,21.82
2022-12-23T19:31:34.161Z,21.83
2022-12-23T19:34:37.405Z,21.84
2022-12-23T19:37:40.534Z,21.70
2022-12-23T19:40:43.695Z,21.87
2022-12-23T19:43:47.540Z,21.86
2022-12-23T19:46:52.161Z,21.83
2022-12-23T19:49:55.229Z,21.77
2022-12-23T19:52:58.357Z,21.78
2022-12-23T19:56:03.831Z,21.86
2022-12-23T19:59:06.950Z,21.91
2022-12-23T20:02:15.110Z,21.91
2022-12-23T20:05:18.445Z,21.89
2022-12-23T20:08:21.490Z,21.93
2022-12-23T20:11:26.390Z,21.93
2022-12-23T20:14:33.832Z,21.91
2022-12-23T20:17:39.137Z,21.88
2022-12-23T20:20:45.091Z,21.86
2022-12-23T20:23:48.140Z,21.90
2022-12-23T20:26:51.203Z,21.92
2022-12-23T20:29:54.209Z,21.91
2022-12-23T20:32:58.804Z,21.87
2022-12-23T20:36:02.974Z,21.88
2022-12-23T20:39:06.441Z,21.89
2022-12-23T20:42:09.549Z,21.90
2022-12-23T20:45:13.540Z,21.90
2022-12-23T20:48:18.436Z,21.89
2022-12-23T20:51:24.167Z,21.84
2022-12-23T20:54:32.561Z,21.88
2022-12-23T20:57:36.783Z,21.79
2022-12-23T21:00:39.791Z,21.77
2022-12-23T21:03:44.241Z,21.64
2022-12-23T21:06:47.653Z,21.72
2022-12-23T21:09:50.647Z,21.70
2022-12-23T21:12:53.680Z,21.69
2022-12-23T21:16:01.843Z,21.74
2022-12-23T21:19:07.337Z,21.76
2022-12-23T21:22:10.382Z,21.80
2022-12-23T21:25:13.428Z,21.81
2022-12-23T21:28:16.562Z,21.77
2022-12-23T21:31:22.076Z,21.75
2022-12-23T21:34:26.596Z,21.81
2022-12-23T21:37:29.726Z,21.83
2022-12-23T21:40:32.823Z,21.79
2022-12-23T21:43:36.157Z,21.80
2022-12-23T21:46:39.139Z,21.75
2022-12-23T21:49:44.266Z,21.67
2022-12-23T21:52:47.192Z,21.63
2022-12-23T21:55:50.238Z,21.58
2022-12-23T21:58:56.450Z,21.52
2022-12-23T22:01:59.564Z,21.52
2022-12-23T22:05:04.028Z,21.49
2022-12-23T22:08:07.127Z,21.47
2022-12-23T22:11:11.341Z,21.46
2022-12-23T22:14:16.234Z,21.44
2022-12-23T22:17:19.252Z,21.43
2022-12-23T22:20:23.770Z,21.40
2022-12-23T22:23:26.722Z,21.41
2022-12-23T22:26:32.350Z,21.38
2022-12-23T22:29:35.314Z,21.41
2022-12-23T22:32:42.389Z,21.41
2022-12-23T22:35:55.821Z,21.42
2022-12-23T22:39:00.677Z,21.41
2022-12-23T22:42:03.684Z,21.40
2022-12-23T22:45:09.293Z,21.37
2022-12-23T22:48:12.432Z,21.38
2022-12-23T22:51:18.961Z,21.38
2022-12-23T22:54:21.996Z,21.37
2022-12-23T22:57:25.072Z,21.36
2022-12-23T23:00:28.071Z,21.36
2022-12-23T23:03:31.767Z,21.34
2022-12-23T23:06:38.692Z,21.34
2022-12-23T23:09:41.781Z,21.31
2022-12-23T23:12:44.870Z,21.31
2022-12-23T23:15:48.908Z,21.32
2022-12-23T23:18:52.441Z,21.32
2022-12-23T23:21:56.851Z,21.32
2022-12-23T23:24:59.894Z,21.33
2022-12-23T23:28:02.979Z,21.33
2022-12-23T23:31:39.696Z,21.34
2022-12-23T23:34:29.653Z,21.31
2022-12-23T23:37:33.986Z,21.34
2022-12-23T23:40:37.391Z,21.33
2022-12-23T23:43:40.448Z,21.34
2022-12-23T23:46:43.417Z,21.23
2022-12-23T23:49:46.477Z,21.32
2022-12-23T23:52:50.973Z,21.31
2022-12-23T23:55:53.964Z,21.33
2022-12-23T23:58:57.768Z,21.24
